Mound Bayou, MS (38762)

12:37 PM CDT on September 04, 2015 (GMT -0500)
WKXY North Cleveland | | Change Station
CLOSE
Current Station
Personal Weather Station
Location: Cleveland, MS
Elevation: 144 ft
Nearby Weather Stations

Elev 144 ft 33.79 °N, 90.72 °W | Updated 53 seconds ago

Clear
Clear
93.7 °F
Feels Like 100 °F
N
4.7
Wind Variable Wind from NE
Gusts 6.7 mph

Today
High -- | Low -- °F
--% Chance of Precip.
Yesterday
High -- | Low -- °F
Precip. -- in
6:38 AM 7:24 PM
Waning Gibbous, 57% visible
Pressure 29.99 in
Visibility 10.0 miles
Clouds Clear
Heat Index 100 °F
Dew Point 70 °F
Humidity 47%
Rainfall 0.00 in
Snow Depth Not available.
UV 10 out of 12
Pollen 10.40 out of 12
Air Quality Not available.
Flu Activity Not available.
METAR KRNV 041715Z AUTO 00000KT 10SM CLR 34/21 A2999 RMK AO2 T03380207
Pressure 29.99 in
Visibility 10.0 miles
Clouds Clear
Heat Index 100 °F
Dew Point 70 °F
Humidity 47%
Rainfall 0.00 in
Snow Depth Not available.
UV 10 out of 12
Pollen 10.40 out of 12
Air Quality Not available.
Flu Activity Not available.
METAR KRNV 041715Z AUTO 00000KT 10SM CLR 34/21 A2999 RMK AO2 T03380207

10-Day Weather Forecast

×

Almanac

Astronomy

Sep. 04, 2015 Rise Set
Actual Time
Civil Twilight
Nautical Twilight
Astronomical Twilight
Moon
Length of Visible Light
Length of Day
Tomorrow will be .
, % of the Moon is Illuminated

Today's Extremes

State Highs State Lows

Community

WunderPhotos

Upload Photos

1,852,244 photos uploaded!

WunderBlogs® & News

Nearby

Air Quality

  Air Quality AQ Index Pollutant
Not available.

Snow Depth

Station Depth Elevation

Earthquake Activity

City Distance Mag. Time & Date
Minimum magnitude displayed is 2.5.

Coastal Water Temperatures

Place Temperature

Stations

Nearby Weather Stations

Station Location Temp. Windchill Dew Point Humidity Wind Precip. Elev Updated Type